Voeltendorf Airport LOAD

Flugplatz Daten

Name: Voeltendorf Airport

Ident: LOAD

Lat: 48,1617012

Long: 15,58829975

Platzhöhe: 1063 ft

IataCode:

City: Voeltendorf

Metar

2019/05/27 16:00
CYCP 271600Z 05004KT 360V070 15SM SCT350 13/03 A3002 RMK CI3 FU NE-NW LOADER ON RUNWAY SLP174 DENSITY ALT 2500FT

Taf

Gewünschte Webcam nicht vorhanden? Dann fügen Sie eine hinzu. Sie wird dann so schnell wie möglich freigeschaltet
Url: Title: